METAR AND TAF INFORMATION
METAR FOR KSTE
ADDS - METARS form results

(1243 UTC 24 January 2019)
Data provider http://aviationweather.gov/metar/data/
 
METAR text: KSTE 241235Z AUTO 00000KT 2 1/2SM UP BKN030 OVC038 M12/M13 A2975 RMK AO2 T11221127
Conditions at: KSTE (STEVENS POINT , WI, US) observed 1235 UTC 24 January 2019
Temperature: -12.2°C (10°F)
Dewpoint: -12.7°C ( 9°F) [RH = 96%]
Pressure (altimeter): 29.75 inches Hg (1007.5 mb)
Winds: calm
Visibility: 2.50 miles (4.02 km)
Ceiling: 3000 feet AGL
Clouds: broken clouds at 3000 feet AGL
overcast cloud deck at 3800 feet AGL
Weather: UP  (unknown precipitation)

METAR text: KSTE 241215Z AUTO 00000KT 4SM UP OVC030 M13/M13 A2974 RMK AO2 T11261132
Conditions at: KSTE (STEVENS POINT , WI, US) observed 1215 UTC 24 January 2019
Temperature: -12.6°C ( 9°F)
Dewpoint: -13.2°C ( 8°F) [RH = 95%]
Pressure (altimeter): 29.74 inches Hg (1007.2 mb)
Winds: calm
Visibility: 4 miles ( 6 km)
Ceiling: 3000 feet AGL
Clouds: overcast cloud deck at 3000 feet AGL
Weather: UP  (unknown precipitation)

METAR text: KSTE 241155Z AUTO 25003KT 5SM UP BKN032 OVC038 M13/M13 A2975 RMK AO2 70003 T11281135 11128 21201
Conditions at: KSTE (STEVENS POINT , WI, US) observed 1155 UTC 24 January 2019
Temperature: -12.8°C ( 9°F)
Dewpoint: -13.5°C ( 8°F) [RH = 94%]
Pressure (altimeter): 29.75 inches Hg (1007.5 mb)
Winds: from the WSW (250 degrees) at 3 MPH (3 knots; 1.5 m/s)
Visibility: 5 miles ( 8 km)
Ceiling: 3200 feet AGL
Clouds: broken clouds at 3200 feet AGL
overcast cloud deck at 3800 feet AGL
Weather: UP  (unknown precipitation)

 AIRPORT MAP

Esri Leaflet Quickstart
 RUNWAY INFORMATION
Runway 03 Runway length 6028 ft Runway width 120 ft
Runway elevation 1103 ft Runway displaced threshold 0 ft Runway heading 30
Runway 21 Runway length 6028 ft Runway width 120 ft
Runway elevation 1110 ft Runway displaced threshold 0 ft Runway heading 210
Runway 12 Runway length 3635 ft Runway width 75 ft
Runway elevation 1105 ft Runway displaced threshold 0 ft Runway heading 120
Runway 30 Runway length 3635 ft Runway width 75 ft
Runway elevation 1103 ft Runway displaced threshold 0 ft Runway heading 300

 AIRPORT FREQUENCIES
Type AWOS Name AWOS 3 Frequency 119.275 MHZ
Type CNTR Name MINNEAPOLI Frequency 124.4 MHZ
Type RDO Name GREEN BAY Frequency 110.6 MHZ
Type UNIC Name CTAF/UNICO Frequency 122.7 MHZ

 AIRPORT NEAR NAVIGATION AIDS



Powered by Virtual Airlines Manager [v2.6.2]